Time,TemperatureF,DewpointF,PressureIn,WindDirection,WindDirectionDegrees,WindSpeedMPH,WindSpeedGustMPH,Humidity,HourlyPrecipIn,Conditions,Clouds,dailyrainin,SoftwareType,DateUTC
2013-03-29 00:00:00,35.6,29.4,30.24,East,90,0.0,-999.0,78,-99.99,,,0.00,Acu-Link.com,2013-03-29 04:00:00,
2013-03-29 00:15:00,35.6,29.7,30.25,East,90,0.0,-999.0,79,-99.99,,,0.00,Acu-Link.com,2013-03-29 04:15:00,
2013-03-29 00:30:00,35.6,29.7,30.24,East,90,0.0,-999.0,79,-99.99,,,0.00,Acu-Link.com,2013-03-29 04:30:00,
2013-03-29 00:45:00,35.6,29.4,30.25,East,90,0.0,-999.0,78,-99.99,,,0.00,Acu-Link.com,2013-03-29 04:45:00,
2013-03-29 01:00:00,35.6,29.4,30.25,ENE,67,0.0,-999.0,78,-99.99,,,0.00,Acu-Link.com,2013-03-29 05:00:00,
2013-03-29 01:15:00,35.6,29.7,30.25,ESE,112,0.0,-999.0,79,-99.99,,,0.00,Acu-Link.com,2013-03-29 05:15:00,
2013-03-29 01:31:00,35.6,29.4,30.25,East,90,0.0,-999.0,78,-99.99,,,0.00,Acu-Link.com,2013-03-29 05:31:00,
2013-03-29 01:46:00,35.6,29.4,30.25,East,90,0.0,-999.0,78,-99.99,,,0.00,Acu-Link.com,2013-03-29 05:46:00,
2013-03-29 02:01:00,35.6,29.4,30.25,ESE,112,0.0,-999.0,78,-99.99,,,0.00,Acu-Link.com,2013-03-29 06:01:00,
2013-03-29 02:16:00,37.4,30.5,30.24,West,270,0.0,-999.0,76,-99.99,,,0.00,Acu-Link.com,2013-03-29 06:16:00,
2013-03-29 02:31:00,37.4,30.2,30.25,NNW,337,1.6,-999.0,75,-99.99,,,0.00,Acu-Link.com,2013-03-29 06:31:00,
2013-03-29 02:46:00,37.4,30.5,30.25,West,270,0.0,-999.0,76,-99.99,,,0.00,Acu-Link.com,2013-03-29 06:46:00,
2013-03-29 03:17:00,37.4,30.2,30.24,West,270,2.0,-999.0,75,-99.99,,,0.00,Acu-Link.com,2013-03-29 07:17:00,
2013-03-29 03:32:00,37.4,30.2,30.24,WNW,292,1.6,-999.0,75,-99.99,,,0.00,Acu-Link.com,2013-03-29 07:32:00,
2013-03-29 03:47:00,37.4,30.2,30.24,NNE,22,0.0,-999.0,75,-99.99,,,0.00,Acu-Link.com,2013-03-29 07:47:00,
2013-03-29 04:02:00,37.4,30.5,30.23,NNE,22,0.0,-999.0,76,-99.99,,,0.00,Acu-Link.com,2013-03-29 08:02:00,
2013-03-29 04:17:00,37.4,30.5,30.23,NNE,22,0.0,-999.0,76,-99.99,,,0.00,Acu-Link.com,2013-03-29 08:17:00,
2013-03-29 04:32:00,37.4,30.9,30.23,NNW,337,0.0,-999.0,77,-99.99,,,0.00,Acu-Link.com,2013-03-29 08:32:00,
2013-03-29 04:47:00,35.6,29.1,30.23,WSW,247,0.0,-999.0,77,-99.99,,,0.00,Acu-Link.com,2013-03-29 08:47:00,
2013-03-29 05:02:00,35.6,29.1,30.24,SE,135,1.1,-999.0,77,-99.99,,,0.00,Acu-Link.com,2013-03-29 09:02:00,
2013-03-29 05:17:00,35.6,29.1,30.24,WSW,247,0.0,-999.0,77,-99.99,,,0.00,Acu-Link.com,2013-03-29 09:17:00,
2013-03-29 05:32:00,35.6,29.4,30.24,SW,225,0.0,-999.0,78,-99.99,,,0.00,Acu-Link.com,2013-03-29 09:32:00,
2013-03-29 05:48:00,33.8,28.0,30.24,SW,225,0.0,-999.0,79,-99.99,,,0.00,Acu-Link.com,2013-03-29 09:48:00,
2013-03-29 06:03:00,33.8,28.0,30.24,East,90,0.0,-999.0,79,-99.99,,,0.00,Acu-Link.com,2013-03-29 10:03:00,
2013-03-29 06:18:00,33.8,28.3,30.24,SSW,202,0.0,-999.0,80,-99.99,,,0.00,Acu-Link.com,2013-03-29 10:18:00,
2013-03-29 06:33:00,32.0,26.5,30.24,SW,225,0.0,-999.0,80,-99.99,,,0.00,Acu-Link.com,2013-03-29 10:33:00,
2013-03-29 06:48:00,33.8,28.6,30.24,WNW,292,0.0,-999.0,81,-99.99,,,0.00,Acu-Link.com,2013-03-29 10:48:00,
2013-03-29 07:03:00,32.0,27.1,30.25,ENE,67,0.0,-999.0,82,-99.99,,,0.00,Acu-Link.com,2013-03-29 11:03:00,
2013-03-29 07:19:00,32.0,27.4,30.24,ENE,67,0.0,-999.0,83,-99.99,,,0.00,Acu-Link.com,2013-03-29 11:19:00,
2013-03-29 07:34:00,32.0,27.4,30.25,ENE,67,0.0,-999.0,83,-99.99,,,0.00,Acu-Link.com,2013-03-29 11:34:00,
2013-03-29 07:49:00,32.0,28.0,30.25,ENE,67,1.1,-999.0,85,-99.99,,,0.00,Acu-Link.com,2013-03-29 11:49:00,
2013-03-29 08:04:00,32.0,28.0,30.26,ESE,112,1.1,-999.0,85,-99.99,,,0.00,Acu-Link.com,2013-03-29 12:04:00,
2013-03-29 08:20:00,32.0,28.0,30.26,East,90,0.0,-999.0,85,-99.99,,,0.00,Acu-Link.com,2013-03-29 12:20:00,
2013-03-29 08:35:00,33.8,27.7,30.26,West,270,1.6,-999.0,78,-99.99,,,0.00,Acu-Link.com,2013-03-29 12:35:00,
2013-03-29 08:50:00,35.6,27.8,30.26,WNW,292,2.7,-999.0,73,-99.99,,,0.00,Acu-Link.com,2013-03-29 12:50:00,
2013-03-29 09:05:00,35.6,27.8,30.26,WNW,292,4.0,-999.0,73,-99.99,,,0.00,Acu-Link.com,2013-03-29 13:05:00,
2013-03-29 09:21:00,37.4,28.9,30.26,WNW,292,3.6,-999.0,71,-99.99,,,0.00,Acu-Link.com,2013-03-29 13:21:00,
2013-03-29 09:51:00,41.0,30.9,30.26,WNW,292,2.7,-999.0,67,-99.99,,,0.00,Acu-Link.com,2013-03-29 13:51:00,
2013-03-29 10:06:00,42.8,31.1,30.26,South,180,2.7,-999.0,63,-99.99,,,0.00,Acu-Link.com,2013-03-29 14:06:00,
2013-03-29 10:21:00,42.8,30.3,30.26,WNW,292,2.7,-999.0,61,-99.99,,,0.00,Acu-Link.com,2013-03-29 14:21:00,
2013-03-29 10:37:00,44.6,31.6,30.26,West,270,1.1,-999.0,60,-99.99,,,0.00,Acu-Link.com,2013-03-29 14:37:00,
2013-03-29 10:52:00,44.6,30.3,30.26,NE,45,3.1,-999.0,57,-99.99,,,0.00,Acu-Link.com,2013-03-29 14:52:00,
2013-03-29 11:07:00,44.6,29.9,30.26,WNW,292,2.0,-999.0,56,-99.99,,,0.00,Acu-Link.com,2013-03-29 15:07:00,
2013-03-29 11:22:00,44.6,27.1,30.26,WNW,292,2.7,-999.0,50,-99.99,,,0.00,Acu-Link.com,2013-03-29 15:22:00,
2013-03-29 11:37:00,46.4,27.3,30.27,NW,315,5.1,-999.0,47,-99.99,,,0.00,Acu-Link.com,2013-03-29 15:37:00,
2013-03-29 11:52:00,46.4,30.2,30.26,NE,45,2.0,-999.0,53,-99.99,,,0.00,Acu-Link.com,2013-03-29 15:52:00,
2013-03-29 12:08:00,48.2,29.9,30.26,SSE,157,7.2,-999.0,49,-99.99,,,0.00,Acu-Link.com,2013-03-29 16:08:00,
2013-03-29 12:23:00,48.2,28.4,30.26,West,270,4.7,-999.0,46,-99.99,,,0.00,Acu-Link.com,2013-03-29 16:23:00,
2013-03-29 12:38:00,48.2,28.4,30.26,West,270,4.7,-999.0,46,-99.99,,,0.00,Acu-Link.com,2013-03-29 16:38:00,
2013-03-29 12:53:00,48.2,28.4,30.25,West,270,7.8,-999.0,46,-99.99,,,0.00,Acu-Link.com,2013-03-29 16:53:00,
2013-03-29 13:08:00,46.4,26.8,30.25,East,90,4.7,-999.0,46,-99.99,,,0.00,Acu-Link.com,2013-03-29 17:08:00,
2013-03-29 13:23:00,50.0,26.6,30.25,NNE,22,4.0,-999.0,40,-99.99,,,0.00,Acu-Link.com,2013-03-29 17:23:00,
2013-03-29 13:38:00,48.2,27.3,30.25,North,0,7.8,-999.0,44,-99.99,,,0.00,Acu-Link.com,2013-03-29 17:38:00,
2013-03-29 13:53:00,48.2,24.4,30.24,West,270,3.6,-999.0,39,-99.99,,,0.00,Acu-Link.com,2013-03-29 17:53:00,
2013-03-29 14:08:00,50.0,27.2,30.24,SE,135,2.0,-999.0,41,-99.99,,,0.00,Acu-Link.com,2013-03-29 18:08:00,
2013-03-29 14:24:00,50.0,26.6,30.23,NW,315,5.6,-999.0,40,-99.99,,,0.00,Acu-Link.com,2013-03-29 18:24:00,
2013-03-29 14:39:00,48.2,25.6,30.23,NNW,337,3.1,-999.0,41,-99.99,,,0.00,Acu-Link.com,2013-03-29 18:39:00,
2013-03-29 14:54:00,50.0,26.6,30.23,West,270,8.3,-999.0,40,-99.99,,,0.00,Acu-Link.com,2013-03-29 18:54:00,
2013-03-29 15:09:00,50.0,27.2,30.23,WSW,247,4.7,-999.0,41,-99.99,,,0.00,Acu-Link.com,2013-03-29 19:09:00,
2013-03-29 15:24:00,50.0,28.4,30.23,West,270,5.6,-999.0,43,-99.99,,,0.00,Acu-Link.com,2013-03-29 19:24:00,
2013-03-29 15:40:00,48.2,26.8,30.22,NW,315,5.6,-999.0,43,-99.99,,,0.00,Acu-Link.com,2013-03-29 19:40:00,
2013-03-29 15:55:00,50.0,27.2,30.22,West,270,9.8,-999.0,41,-99.99,,,0.00,Acu-Link.com,2013-03-29 19:55:00,
2013-03-29 16:10:00,48.2,25.6,30.22,West,270,5.1,-999.0,41,-99.99,,,0.00,Acu-Link.com,2013-03-29 20:10:00,
2013-03-29 16:25:00,48.2,26.2,30.21,WSW,247,5.1,-999.0,42,-99.99,,,0.00,Acu-Link.com,2013-03-29 20:25:00,
2013-03-29 16:41:00,48.2,25.6,30.21,North,0,6.3,-999.0,41,-99.99,,,0.00,Acu-Link.com,2013-03-29 20:41:00,
2013-03-29 16:56:00,46.4,23.4,30.21,WNW,292,1.1,-999.0,40,-99.99,,,0.00,Acu-Link.com,2013-03-29 20:56:00,
2013-03-29 17:26:00,46.4,22.8,30.21,WNW,292,6.7,-999.0,39,-99.99,,,0.00,Acu-Link.com,2013-03-29 21:26:00,
2013-03-29 17:41:00,46.4,22.8,30.21,WNW,292,6.7,-999.0,39,-99.99,,,0.00,Acu-Link.com,2013-03-29 21:41:00,
2013-03-29 17:56:00,46.4,22.8,30.21,WNW,292,6.7,-999.0,39,-99.99,,,0.00,Acu-Link.com,2013-03-29 21:56:00,
2013-03-29 20:13:00,37.4,19.5,30.21,North,0,0.0,-999.0,48,-99.99,,,0.00,Acu-Link.com,2013-03-30 00:13:00,
2013-03-29 20:28:00,37.4,20.5,30.21,North,0,0.0,-999.0,50,-99.99,,,0.00,Acu-Link.com,2013-03-30 00:28:00,
2013-03-29 20:43:00,37.4,20.5,30.21,North,0,0.0,-999.0,50,-99.99,,,0.00,Acu-Link.com,2013-03-30 00:43:00,
2013-03-29 20:58:00,35.6,21.5,30.21,North,0,0.0,-999.0,56,-99.99,,,0.00,Acu-Link.com,2013-03-30 00:58:00,
2013-03-29 21:14:00,35.6,21.5,30.21,North,0,0.0,-999.0,56,-99.99,,,0.00,Acu-Link.com,2013-03-30 01:14:00,
2013-03-29 21:29:00,35.6,21.5,30.21,North,0,0.0,-999.0,56,-99.99,,,0.00,Acu-Link.com,2013-03-30 01:29:00,
2013-03-29 21:44:00,35.6,21.5,30.22,North,0,0.0,-999.0,56,-99.99,,,0.00,Acu-Link.com,2013-03-30 01:44:00,